KIJX/IJX METAR and TAF weather

Enter ICAO airport designator
Station Type Date Time Source
KIJX METAR 2019/06/18 17:15 UTC NOAA

KIJX 181715Z AUTO 00000KT 10SM SCT036 23/19 A2995 RMK AO2 T02300188


Station Type Date Time Source
KIJX Decoded METAR 2019/06/18 17:15 UTC NOAA

Jacksonville, Jacksonville Municipal Airport, IL, United States (KIJX) 39-46-27N 090-14-19W
Jun 18, 2019 - 01:15 PM EDT / 2019.06.18 1715 UTC
Wind: Calm:0
Visibility: 10 mile(s):0
Sky conditions: partly cloudy
Temperature: 73.4 F (23.0 C)
Dew Point: 65.8 F (18.8 C)
Relative Humidity: 77%
Pressure (altimeter): 29.95 in. Hg (1014 hPa)
ob: KIJX 181715Z AUTO 00000KT 10SM SCT036 23/19 A2995 RMK AO2 T02300188
cycle: 17

Station Type Date Time Source
KIJX TAF UTC NOAA

Error!

Example: see airport list